createdAt,value
2019-05-25T00:01:02.610Z,50.20
2019-05-25T00:03:10.797Z,48.63
2019-05-25T00:05:18.763Z,48.60
2019-05-25T00:07:26.760Z,47.78
2019-05-25T00:09:34.898Z,48.50
2019-05-25T00:11:42.890Z,47.70
2019-05-25T00:13:50.789Z,45.50
2019-05-25T00:15:58.781Z,44.63
2019-05-25T00:18:06.735Z,43.15
2019-05-25T00:20:14.755Z,42.93
2019-05-25T00:22:22.772Z,40.45
2019-05-25T00:24:30.760Z,40.98
2019-05-25T00:26:38.856Z,39.53
2019-05-25T00:28:47.274Z,39.78
2019-05-25T00:30:55.328Z,39.78
2019-05-25T00:33:04.397Z,37.38
2019-05-25T00:35:12.755Z,40.12
2019-05-25T00:37:20.844Z,39.27
2019-05-25T00:39:29.344Z,40.15
2019-05-25T00:41:37.377Z,42.40
2019-05-25T00:43:45.372Z,42.62
2019-05-25T00:45:53.561Z,43.95
2019-05-25T00:48:02.499Z,43.52
2019-05-25T00:50:10.735Z,44.00
2019-05-25T00:52:18.638Z,43.35
2019-05-25T00:54:28.163Z,43.17
2019-05-25T00:56:36.252Z,44.05
2019-05-25T00:58:44.224Z,45.10
2019-05-25T01:00:53.186Z,42.25
2019-05-25T01:03:01.344Z,40.52
2019-05-25T01:05:09.675Z,40.38
2019-05-25T01:07:17.616Z,41.00
2019-05-25T01:09:25.607Z,41.20
2019-05-25T01:11:33.500Z,42.05
2019-05-25T01:13:41.558Z,41.37
2019-05-25T01:15:49.641Z,42.75
2019-05-25T01:17:57.633Z,41.60
2019-05-25T01:20:09.585Z,40.33
2019-05-25T01:22:17.508Z,37.25
2019-05-25T01:24:26.366Z,37.45
2019-05-25T01:26:34.376Z,37.45
2019-05-25T01:28:42.370Z,37.25
2019-05-25T01:30:53.429Z,37.73
2019-05-25T01:33:01.524Z,36.50
2019-05-25T01:35:10.517Z,35.08
2019-05-25T01:37:18.507Z,35.00
2019-05-25T01:39:26.428Z,34.38
2019-05-25T01:41:34.318Z,34.90
2019-05-25T01:43:42.573Z,35.45
2019-05-25T01:45:50.693Z,34.73
2019-05-25T01:47:58.687Z,34.75
2019-05-25T01:50:08.634Z,35.15
2019-05-25T01:52:16.940Z,34.18
2019-05-25T01:54:25.453Z,31.93
2019-05-25T01:56:33.406Z,30.90
2019-05-25T01:58:41.433Z,29.30
2019-05-25T02:00:49.924Z,31.60
2019-05-25T02:02:57.814Z,29.70
2019-05-25T02:05:07.445Z,28.77
2019-05-25T02:07:15.405Z,29.15
2019-05-25T02:09:23.363Z,28.38
2019-05-25T02:11:31.286Z,27.95
2019-05-25T02:13:39.276Z,29.37
2019-05-25T02:15:47.707Z,29.63
2019-05-25T02:17:56.038Z,29.45
2019-05-25T02:20:07.237Z,29.67
2019-05-25T02:22:15.132Z,28.85
2019-05-25T02:24:23.153Z,28.77
2019-05-25T02:26:31.273Z,27.30
2019-05-25T02:28:39.326Z,26.55
2019-05-25T02:30:47.978Z,25.57
2019-05-25T02:32:56.014Z,26.40
2019-05-25T02:35:06.071Z,25.43
2019-05-25T02:37:14.390Z,25.05
2019-05-25T02:39:22.772Z,27.27
2019-05-25T02:41:31.888Z,27.52
2019-05-25T02:43:40.578Z,27.07
2019-05-25T02:45:48.537Z,26.57
2019-05-25T02:47:57.038Z,28.40
2019-05-25T02:50:08.526Z,28.77
2019-05-25T02:52:16.896Z,28.98
2019-05-25T02:54:24.893Z,28.85
2019-05-25T02:56:33.876Z,28.35
2019-05-25T02:58:41.970Z,29.75
2019-05-25T03:00:50.228Z,29.87
2019-05-25T03:02:58.619Z,28.30
2019-05-25T03:05:14.534Z,28.77
2019-05-25T03:07:22.931Z,27.05
2019-05-25T03:09:32.889Z,27.73
2019-05-25T03:11:41.823Z,26.70
2019-05-25T03:13:49.788Z,26.75
2019-05-25T03:15:58.815Z,28.35
2019-05-25T03:18:06.803Z,27.95
2019-05-25T03:20:15.435Z,25.88
2019-05-25T03:22:23.463Z,24.30
2019-05-25T03:24:31.347Z,24.95
2019-05-25T03:26:39.238Z,23.52
2019-05-25T03:28:47.653Z,22.60
2019-05-25T03:30:55.713Z,22.07
2019-05-25T03:33:04.273Z,22.82
2019-05-25T03:35:12.576Z,23.55
2019-05-25T03:37:20.572Z,24.10
2019-05-25T03:39:28.566Z,23.62
2019-05-25T03:41:36.854Z,23.95
2019-05-25T03:43:44.943Z,26.35
2019-05-25T03:45:52.941Z,25.12
2019-05-25T03:48:00.994Z,25.20
2019-05-25T03:50:09.605Z,23.52
2019-05-25T03:52:18.081Z,25.00
2019-05-25T03:54:26.643Z,25.20
2019-05-25T03:56:35.103Z,24.15
2019-05-25T03:58:43.136Z,25.65
2019-05-25T04:00:51.349Z,25.10
2019-05-25T04:02:59.395Z,24.77
2019-05-25T04:05:07.624Z,25.48
2019-05-25T04:07:15.546Z,25.62
2019-05-25T04:09:23.737Z,24.40
2019-05-25T04:11:31.727Z,24.18
2019-05-25T04:13:40.657Z,23.65
2019-05-25T04:15:49.015Z,24.00
2019-05-25T04:17:56.913Z,24.10
2019-05-25T04:20:08.348Z,24.43
2019-05-25T04:22:16.805Z,24.07
2019-05-25T04:24:25.104Z,25.02
2019-05-25T04:26:34.388Z,24.70
2019-05-25T04:28:42.518Z,24.82
2019-05-25T04:30:50.899Z,25.97
2019-05-25T04:32:58.832Z,25.52
2019-05-25T04:35:07.572Z,25.48
2019-05-25T04:37:15.573Z,25.00
2019-05-25T04:39:23.611Z,26.77
2019-05-25T04:41:31.598Z,23.10
2019-05-25T04:43:39.585Z,23.00
2019-05-25T04:45:47.599Z,22.10
2019-05-25T04:47:55.507Z,22.17
2019-05-25T04:50:04.436Z,22.48
2019-05-25T04:52:12.581Z,22.82
2019-05-25T04:54:20.467Z,21.45
2019-05-25T04:56:38.802Z,20.77
2019-05-25T04:58:38.076Z,22.60
2019-05-25T05:00:46.013Z,22.20
2019-05-25T05:02:54.164Z,20.80
2019-05-25T05:05:03.101Z,19.75
2019-05-25T05:07:11.074Z,20.60
2019-05-25T05:09:19.134Z,18.87
2019-05-25T05:11:27.053Z,19.92
2019-05-25T05:13:35.552Z,19.20
2019-05-25T05:15:43.946Z,19.48
2019-05-25T05:17:52.001Z,19.50
2019-05-25T05:20:00.204Z,18.52
2019-05-25T05:22:08.225Z,18.70
2019-05-25T05:24:16.957Z,18.55
2019-05-25T05:26:25.568Z,17.62
2019-05-25T05:28:34.057Z,17.07
2019-05-25T05:30:42.074Z,17.62
2019-05-25T05:32:50.468Z,16.52
2019-05-25T05:34:58.696Z,16.95
2019-05-25T05:37:06.990Z,17.77
2019-05-25T05:39:16.197Z,16.75
2019-05-25T05:41:24.615Z,12.60
2019-05-25T05:43:33.974Z,11.63
2019-05-25T05:45:43.095Z,16.17
2019-05-25T05:47:53.024Z,16.30
2019-05-25T05:50:04.446Z,12.23
2019-05-25T05:52:14.777Z,14.43
2019-05-25T05:54:23.888Z,12.05
2019-05-25T05:56:31.919Z,12.75
2019-05-25T05:58:40.167Z,13.88
2019-05-25T06:00:48.754Z,13.83
2019-05-25T06:02:56.744Z,12.82
2019-05-25T06:05:05.573Z,14.63
2019-05-25T06:07:13.572Z,14.38
2019-05-25T06:09:21.487Z,13.25
2019-05-25T06:11:29.479Z,11.63
2019-05-25T06:13:37.369Z,12.95
2019-05-25T06:15:45.286Z,12.93
2019-05-25T06:17:53.277Z,13.43
2019-05-25T06:20:01.400Z,12.88
2019-05-25T06:22:09.316Z,10.45
2019-05-25T06:24:17.536Z,9.48
2019-05-25T06:26:25.595Z,9.33
2019-05-25T06:28:34.575Z,8.40
2019-05-25T06:30:43.631Z,8.00
2019-05-25T06:32:52.112Z,8.45
2019-05-25T06:35:00.436Z,10.80
2019-05-25T06:37:08.837Z,9.60
2019-05-25T06:39:17.317Z,9.25
2019-05-25T06:41:25.397Z,9.58
2019-05-25T06:43:33.275Z,9.35
2019-05-25T06:45:41.913Z,10.05
2019-05-25T06:47:50.077Z,8.60
2019-05-25T06:49:58.064Z,8.93
2019-05-25T06:52:06.804Z,6.20
2019-05-25T06:54:15.579Z,7.95
2019-05-25T06:56:25.172Z,6.72
2019-05-25T06:58:33.169Z,7.05
2019-05-25T07:00:41.071Z,6.85
2019-05-25T07:02:49.053Z,6.97
2019-05-25T07:04:57.026Z,6.75
2019-05-25T07:07:05.398Z,6.37
2019-05-25T07:09:13.269Z,7.00
2019-05-25T07:11:21.549Z,6.65
2019-05-25T07:13:30.735Z,6.40
2019-05-25T07:15:38.604Z,5.47
2019-05-25T07:17:46.663Z,5.15
2019-05-25T07:19:54.997Z,4.75
2019-05-25T07:22:03.091Z,5.67
2019-05-25T07:24:11.446Z,5.28
2019-05-25T07:26:19.540Z,5.72
2019-05-25T07:28:27.502Z,5.70
2019-05-25T07:30:36.061Z,4.62
2019-05-25T07:32:44.522Z,4.60
2019-05-25T07:34:52.596Z,4.35
2019-05-25T07:37:01.540Z,5.05
2019-05-25T07:39:09.586Z,4.70
2019-05-25T07:41:17.462Z,6.20
2019-05-25T07:43:25.407Z,5.40
2019-05-25T07:45:33.714Z,4.62
2019-05-25T07:47:41.701Z,4.83
2019-05-25T07:49:49.666Z,5.30
2019-05-25T07:51:57.669Z,5.83
2019-05-25T07:54:06.536Z,5.53
2019-05-25T07:56:16.402Z,5.15
2019-05-25T07:58:25.316Z,4.28
2019-05-25T08:00:33.263Z,4.42
2019-05-25T08:02:41.243Z,5.03
2019-05-25T08:04:49.252Z,5.58
2019-05-25T08:06:57.231Z,5.37
2019-05-25T08:09:07.727Z,4.25
2019-05-25T08:11:16.228Z,4.60
2019-05-25T08:13:24.263Z,5.08
2019-05-25T08:15:32.286Z,4.03
2019-05-25T08:17:41.964Z,4.53
2019-05-25T08:19:49.914Z,4.58
2019-05-25T08:21:58.372Z,5.00
2019-05-25T08:24:06.976Z,4.95
2019-05-25T08:26:15.364Z,4.85
2019-05-25T08:28:32.074Z,4.05
2019-05-25T08:30:32.962Z,4.37
2019-05-25T08:32:41.990Z,4.80
2019-05-25T08:34:50.446Z,4.30
2019-05-25T08:36:59.344Z,4.08
2019-05-25T08:39:08.281Z,3.83
2019-05-25T08:41:16.441Z,4.45
2019-05-25T08:43:24.519Z,4.67
2019-05-25T08:45:32.715Z,4.45
2019-05-25T08:47:40.823Z,4.90
2019-05-25T08:49:50.435Z,4.92
2019-05-25T08:51:58.762Z,4.78
2019-05-25T08:54:07.646Z,4.47
2019-05-25T08:56:16.182Z,4.85
2019-05-25T08:58:24.160Z,4.90
2019-05-25T09:00:32.140Z,3.90
2019-05-25T09:02:40.060Z,5.65
2019-05-25T09:04:48.032Z,4.62
2019-05-25T09:06:56.019Z,10.98
2019-05-25T09:09:05.731Z,6.55
2019-05-25T09:11:13.783Z,13.15
2019-05-25T09:13:21.671Z,5.42
2019-05-25T09:15:29.586Z,13.32
2019-05-25T09:17:37.569Z,6.15
2019-05-25T09:19:45.515Z,4.83
2019-05-25T09:22:02.601Z,4.33
2019-05-25T09:24:03.702Z,5.00
2019-05-25T09:26:13.617Z,4.20
2019-05-25T09:28:22.011Z,4.10
2019-05-25T09:30:30.281Z,3.98
2019-05-25T09:32:38.462Z,5.00
2019-05-25T09:34:46.548Z,4.70
2019-05-25T09:36:54.484Z,4.75
2019-05-25T09:39:02.400Z,4.30
2019-05-25T09:41:11.115Z,4.50
2019-05-25T09:43:19.408Z,3.50
2019-05-25T09:45:27.287Z,3.67
2019-05-25T09:47:35.430Z,4.20
2019-05-25T09:49:43.306Z,3.90
2019-05-25T09:51:51.320Z,5.00
2019-05-25T09:53:59.232Z,4.33
2019-05-25T09:56:07.255Z,4.50
2019-05-25T09:58:16.198Z,5.60
2019-05-25T10:00:24.707Z,5.12
2019-05-25T10:02:32.582Z,4.83
2019-05-25T10:04:40.657Z,4.90
2019-05-25T10:06:48.642Z,5.12
2019-05-25T10:08:56.708Z,5.15
2019-05-25T10:11:04.748Z,4.78
2019-05-25T10:13:13.123Z,4.47
2019-05-25T10:15:21.326Z,5.50
2019-05-25T10:17:29.282Z,4.65
2019-05-25T10:19:37.199Z,7.05
2019-05-25T10:21:46.073Z,4.97
2019-05-25T10:23:54.164Z,5.15
2019-05-25T10:26:03.086Z,5.70
2019-05-25T10:28:11.070Z,5.72
2019-05-25T10:30:19.486Z,5.95
2019-05-25T10:32:27.406Z,5.55
2019-05-25T10:34:35.452Z,4.97
2019-05-25T10:36:43.484Z,5.80
2019-05-25T10:38:54.405Z,5.70
2019-05-25T10:41:02.350Z,5.60
2019-05-25T10:43:10.555Z,4.75
2019-05-25T10:45:18.873Z,5.45
2019-05-25T10:47:26.763Z,5.72
2019-05-25T10:49:34.649Z,5.50
2019-05-25T10:51:42.631Z,6.00
2019-05-25T10:53:50.546Z,5.55
2019-05-25T10:55:58.473Z,5.60
2019-05-25T10:58:06.536Z,5.30
2019-05-25T11:00:17.896Z,5.70
2019-05-25T11:02:26.025Z,5.60
2019-05-25T11:04:34.196Z,5.95
2019-05-25T11:06:42.646Z,5.75
2019-05-25T11:08:50.779Z,5.10
2019-05-25T11:10:58.714Z,5.97
2019-05-25T11:13:06.727Z,6.42
2019-05-25T11:15:15.436Z,6.83
2019-05-25T11:17:23.350Z,6.28
2019-05-25T11:19:31.307Z,6.17
2019-05-25T11:21:40.330Z,5.80
2019-05-25T11:23:48.515Z,7.08
2019-05-25T11:25:56.462Z,6.53
2019-05-25T11:28:08.270Z,5.75
2019-05-25T11:30:17.302Z,5.80
2019-05-25T11:32:25.249Z,6.12
2019-05-25T11:34:33.187Z,6.53
2019-05-25T11:36:41.177Z,6.40
2019-05-25T11:38:49.148Z,6.17
2019-05-25T11:40:57.097Z,5.92
2019-05-25T11:43:05.480Z,7.58
2019-05-25T11:45:14.458Z,5.97
2019-05-25T11:47:22.328Z,6.00
2019-05-25T11:49:33.315Z,6.80
2019-05-25T11:51:41.293Z,6.30
2019-05-25T11:53:49.491Z,6.10
2019-05-25T11:55:57.786Z,6.75
2019-05-25T11:58:06.219Z,6.87
2019-05-25T12:00:31.283Z,6.47
2019-05-25T12:02:49.931Z,6.58
2019-05-25T12:05:10.843Z,6.17
2019-05-25T12:07:25.187Z,6.25
2019-05-25T12:09:45.374Z,6.30
2019-05-25T12:11:56.856Z,6.37
2019-05-25T12:14:11.310Z,5.90
2019-05-25T12:16:23.846Z,5.92
2019-05-25T12:18:36.640Z,5.92
2019-05-25T12:20:49.347Z,6.10
2019-05-25T12:23:16.189Z,5.62
2019-05-25T12:25:32.696Z,6.00
2019-05-25T12:27:48.887Z,5.70
2019-05-25T12:30:04.256Z,5.00
2019-05-25T12:32:17.789Z,4.80
2019-05-25T12:34:38.792Z,4.62
2019-05-25T12:37:04.107Z,5.17
2019-05-25T12:39:19.577Z,4.80
2019-05-25T12:41:32.401Z,4.85
2019-05-25T12:43:46.536Z,5.00
2019-05-25T12:46:13.038Z,5.20
2019-05-25T12:48:48.183Z,4.60
2019-05-25T12:51:17.943Z,4.75
2019-05-25T12:53:49.783Z,4.55
2019-05-25T12:56:43.865Z,4.87
2019-05-25T12:59:01.806Z,3.98
2019-05-25T13:01:18.142Z,4.28
2019-05-25T13:03:40.740Z,4.40
2019-05-25T13:06:17.975Z,4.47
2019-05-25T13:09:10.236Z,4.40
2019-05-25T13:11:50.802Z,4.50
2019-05-25T13:14:35.725Z,3.87
2019-05-25T13:17:01.729Z,4.08
2019-05-25T13:19:20.891Z,4.40
2019-05-25T13:21:57.662Z,4.20
2019-05-25T13:24:15.193Z,4.50
2019-05-25T13:26:32.562Z,4.33
2019-05-25T13:28:54.658Z,3.98
2019-05-25T13:31:30.697Z,4.42
2019-05-25T13:33:46.695Z,4.10
2019-05-25T13:35:59.402Z,4.00
2019-05-25T13:38:12.420Z,4.12
2019-05-25T13:40:45.405Z,3.83
2019-05-25T13:43:21.168Z,4.15
2019-05-25T13:45:35.202Z,4.78
2019-05-25T13:47:49.656Z,4.20
2019-05-25T13:50:03.091Z,4.30
2019-05-25T13:52:40.371Z,4.92
2019-05-25T13:55:17.146Z,4.45
2019-05-25T13:57:43.069Z,4.83
2019-05-25T13:59:57.325Z,5.10
2019-05-25T14:02:14.637Z,5.03
2019-05-25T14:04:30.317Z,4.62
2019-05-25T14:06:44.779Z,9.28
2019-05-25T14:09:06.802Z,6.85
2019-05-25T14:11:25.460Z,7.53
2019-05-25T14:13:59.362Z,4.97
2019-05-25T14:16:29.379Z,5.28
2019-05-25T14:18:53.263Z,5.00
2019-05-25T14:24:10.398Z,4.85
2019-05-25T14:26:34.267Z,5.50
2019-05-25T14:28:58.036Z,4.80
2019-05-25T14:33:52.849Z,5.33
2019-05-25T14:36:08.333Z,4.67
2019-05-25T14:38:32.708Z,6.30
2019-05-25T14:40:52.796Z,6.45
2019-05-25T14:43:19.645Z,5.58
2019-05-25T14:45:41.776Z,6.58
2019-05-25T14:48:01.548Z,6.65
2019-05-25T14:50:21.529Z,6.95
2019-05-25T14:52:43.234Z,7.30
2019-05-25T14:55:01.199Z,7.65
2019-05-25T14:57:17.287Z,7.40
2019-05-25T14:59:32.960Z,8.18
2019-05-25T15:02:01.483Z,7.50
2019-05-25T15:04:16.417Z,7.47
2019-05-25T15:06:28.309Z,7.22
2019-05-25T15:08:45.321Z,7.37
2019-05-25T15:11:05.638Z,7.17
2019-05-25T15:13:20.574Z,7.35
2019-05-25T15:15:36.764Z,7.78
2019-05-25T15:17:55.513Z,6.90
2019-05-25T15:20:15.606Z,7.83
2019-05-25T15:22:28.515Z,8.98
2019-05-25T15:24:41.434Z,8.25
2019-05-25T15:26:56.605Z,8.10
2019-05-25T15:29:42.598Z,7.58
2019-05-25T15:31:58.130Z,7.42
2019-05-25T15:34:32.903Z,6.75
2019-05-25T15:36:52.371Z,7.15
2019-05-25T15:39:08.672Z,7.35
2019-05-25T15:41:23.632Z,7.70
2019-05-25T15:43:38.815Z,6.90
2019-05-25T15:46:08.414Z,7.67
2019-05-25T15:48:54.104Z,7.92
2019-05-25T15:54:24.757Z,7.87
2019-05-25T15:56:46.172Z,8.80
2019-05-25T15:59:11.986Z,8.63
2019-05-25T16:01:47.236Z,9.20
2019-05-25T16:04:23.797Z,9.78
2019-05-25T16:06:56.275Z,9.78
2019-05-25T16:15:33.917Z,11.53
2019-05-25T16:18:07.717Z,10.95
2019-05-25T16:20:31.798Z,10.53
2019-05-25T16:22:43.522Z,10.68
2019-05-25T16:25:29.753Z,10.45
2019-05-25T16:28:09.294Z,11.05
2019-05-25T16:30:41.290Z,10.53
2019-05-25T16:33:12.256Z,10.93
2019-05-25T16:35:52.206Z,10.03
2019-05-25T16:38:10.606Z,10.70
2019-05-25T16:40:28.765Z,10.82
2019-05-25T16:43:13.119Z,10.28
2019-05-25T16:45:53.170Z,10.05
2019-05-25T16:48:39.538Z,11.15
2019-05-25T16:53:48.562Z,18.73
2019-05-25T16:56:26.622Z,12.65
2019-05-25T16:58:53.056Z,11.03
2019-05-25T17:01:47.546Z,10.93
2019-05-25T17:04:09.375Z,11.10
2019-05-25T17:06:25.772Z,10.98
2019-05-25T17:11:31.649Z,11.20
2019-05-25T17:16:45.268Z,11.53
2019-05-25T17:19:30.986Z,11.22
2019-05-25T17:22:07.968Z,10.70
2019-05-25T17:24:51.648Z,10.65
2019-05-25T17:30:33.220Z,10.95
2019-05-25T17:33:19.895Z,12.35
2019-05-25T17:35:42.883Z,11.43
2019-05-25T17:38:21.299Z,12.43
2019-05-25T17:41:07.490Z,12.20
2019-05-25T17:43:44.469Z,12.05
2019-05-25T17:46:28.902Z,12.65
2019-05-25T17:49:01.603Z,12.68
2019-05-25T17:51:42.786Z,12.90
2019-05-25T17:54:32.641Z,13.10
2019-05-25T17:57:19.594Z,13.35
2019-05-25T17:59:46.423Z,14.53
2019-05-25T18:02:32.622Z,13.62
2019-05-25T18:04:55.675Z,13.13
2019-05-25T18:07:09.411Z,14.43
2019-05-25T18:09:47.623Z,14.33
2019-05-25T18:12:18.458Z,15.13
2019-05-25T18:15:17.689Z,15.38
2019-05-25T18:17:55.359Z,17.02
2019-05-25T18:20:11.756Z,15.83
2019-05-25T18:22:41.111Z,15.45
2019-05-25T18:25:01.653Z,16.02
2019-05-25T18:27:16.217Z,16.30
2019-05-25T18:29:46.097Z,16.40
2019-05-25T18:32:25.024Z,16.75
2019-05-25T18:35:08.075Z,16.32
2019-05-25T18:37:54.384Z,16.10
2019-05-25T18:40:25.109Z,18.05
2019-05-25T18:42:55.785Z,18.07
2019-05-25T18:45:39.144Z,17.45
2019-05-25T18:48:28.822Z,18.10
2019-05-25T18:50:51.498Z,19.45
2019-05-25T18:55:41.599Z,19.52
2019-05-25T18:58:05.882Z,29.02
2019-05-25T19:00:22.590Z,30.77
2019-05-25T19:02:58.185Z,32.30
2019-05-25T19:05:47.918Z,31.27
2019-05-25T19:08:16.398Z,37.73
2019-05-25T19:10:31.165Z,43.42
2019-05-25T19:12:46.846Z,36.42
2019-05-25T19:14:59.859Z,35.33
2019-05-25T19:17:28.033Z,38.42
2019-05-25T19:19:41.260Z,25.65
2019-05-25T19:21:57.760Z,25.75
2019-05-25T19:24:15.598Z,26.60
2019-05-25T19:30:14.929Z,27.60
2019-05-25T19:32:32.545Z,28.12
2019-05-25T19:34:59.502Z,27.48
2019-05-25T19:37:19.450Z,28.52
2019-05-25T19:39:33.620Z,29.10
2019-05-25T19:41:50.956Z,30.70
2019-05-25T19:44:16.961Z,28.80
2019-05-25T19:46:29.574Z,30.90
2019-05-25T19:48:45.356Z,33.73
2019-05-25T19:51:01.327Z,32.55
2019-05-25T19:53:17.340Z,33.78
2019-05-25T19:55:33.630Z,35.83
2019-05-25T19:57:46.550Z,35.13
2019-05-25T20:00:03.774Z,41.48
2019-05-25T20:02:19.754Z,38.23
2019-05-25T20:04:34.308Z,39.38
2019-05-25T20:06:50.831Z,46.83
2019-05-25T20:09:13.759Z,48.40
2019-05-25T20:11:26.993Z,52.15
2019-05-25T20:13:44.412Z,51.85
2019-05-25T20:16:01.316Z,58.83
2019-05-25T20:18:20.787Z,56.53
2019-05-25T20:20:48.322Z,53.40
2019-05-25T20:23:39.569Z,45.88
2019-05-25T20:25:51.466Z,43.28
2019-05-25T20:28:05.301Z,42.30
2019-05-25T20:30:20.360Z,37.05
2019-05-25T20:32:33.194Z,36.50
2019-05-25T20:34:47.633Z,38.85
2019-05-25T20:37:04.237Z,49.88
2019-05-25T20:39:21.143Z,51.55
2019-05-25T20:41:37.956Z,52.33
2019-05-25T20:43:59.694Z,53.85
2019-05-25T20:46:16.392Z,56.42
2019-05-25T20:54:11.008Z,63.13
2019-05-25T20:56:27.723Z,57.80
2019-05-25T20:58:45.139Z,57.05
2019-05-25T21:00:58.676Z,55.50
2019-05-25T21:03:14.763Z,54.53
2019-05-25T21:05:48.461Z,57.30
2019-05-25T21:07:52.676Z,56.65
2019-05-25T21:10:12.765Z,54.13
2019-05-25T21:15:20.785Z,54.00
2019-05-25T21:17:33.803Z,51.15
2019-05-25T21:19:49.872Z,53.40
2019-05-25T21:22:05.890Z,50.67
2019-05-25T21:24:19.423Z,49.80
2019-05-25T21:26:33.966Z,51.10
2019-05-25T21:28:46.071Z,52.25
2019-05-25T21:31:02.157Z,53.95
2019-05-25T21:33:25.730Z,51.53
2019-05-25T21:35:37.626Z,50.78
2019-05-25T21:37:54.530Z,55.43
2019-05-25T21:40:14.206Z,54.55
2019-05-25T21:42:33.370Z,55.78
2019-05-25T21:44:55.190Z,59.60
2019-05-25T21:47:15.788Z,67.12
2019-05-25T21:49:32.082Z,55.90
2019-05-25T21:51:46.851Z,55.75
2019-05-25T21:54:02.428Z,47.25
2019-05-25T21:56:26.095Z,52.33
2019-05-25T21:59:02.542Z,62.70
2019-05-25T22:01:27.457Z,61.30
2019-05-25T22:03:44.060Z,57.53
2019-05-25T22:06:01.790Z,54.70
2019-05-25T22:08:13.584Z,53.78
2019-05-25T22:10:31.308Z,52.15
2019-05-25T22:12:47.813Z,56.02
2019-05-25T22:14:59.191Z,53.75
2019-05-25T22:17:46.385Z,53.20
2019-05-25T22:20:08.653Z,58.25
2019-05-25T22:22:24.021Z,61.23
2019-05-25T22:24:40.633Z,70.78
2019-05-25T22:26:55.532Z,72.32
2019-05-25T22:29:05.341Z,72.62
2019-05-25T22:31:34.224Z,67.32
2019-05-25T22:34:01.885Z,67.70
2019-05-25T22:36:14.393Z,64.20
2019-05-25T22:38:31.766Z,65.78
2019-05-25T22:40:46.483Z,67.05
2019-05-25T22:43:02.460Z,67.50
2019-05-25T22:45:15.181Z,67.17
2019-05-25T22:47:33.107Z,66.22
2019-05-25T22:49:46.024Z,64.15
2019-05-25T22:52:12.050Z,68.28
2019-05-25T22:54:27.319Z,69.42
2019-05-25T22:56:42.082Z,72.72
2019-05-25T22:58:56.635Z,70.30
2019-05-25T23:01:11.301Z,70.03
2019-05-25T23:03:26.226Z,63.70
2019-05-25T23:05:44.710Z,57.45
2019-05-25T23:08:03.763Z,58.17
2019-05-25T23:10:30.099Z,50.67
2019-05-25T23:12:43.225Z,44.90
2019-05-25T23:14:55.420Z,41.68
2019-05-25T23:17:12.333Z,43.40
2019-05-25T23:19:23.811Z,46.18
2019-05-25T23:21:40.826Z,47.30
2019-05-25T23:24:07.468Z,49.08
2019-05-25T23:26:21.099Z,52.65
2019-05-25T23:28:39.645Z,52.03
2019-05-25T23:31:22.158Z,51.45
2019-05-25T23:34:03.234Z,49.65
2019-05-25T23:36:22.849Z,48.40
2019-05-25T23:39:04.161Z,49.20
2019-05-25T23:41:26.937Z,49.73
2019-05-25T23:44:01.259Z,50.33
2019-05-25T23:46:43.773Z,46.15
2019-05-25T23:49:08.663Z,47.65
2019-05-25T23:51:24.856Z,47.50
2019-05-25T23:53:39.924Z,47.05
2019-05-25T23:56:16.505Z,48.83
2019-05-25T23:58:41.085Z,43.10
